createdAt,value
2022-09-14T00:02:06.707Z,0.80
2022-09-14T00:05:08.532Z,1.00
2022-09-14T00:08:10.717Z,0.90
2022-09-14T00:11:14.122Z,0.90
2022-09-14T00:17:17.911Z,0.90
2022-09-14T00:20:19.302Z,1.20
2022-09-14T00:23:20.998Z,1.08
2022-09-14T00:26:23.432Z,0.85
2022-09-14T00:29:24.899Z,0.90
2022-09-14T00:32:26.283Z,1.00
2022-09-14T00:35:28.177Z,1.05
2022-09-14T00:38:29.583Z,1.13
2022-09-14T00:41:35.034Z,1.40
2022-09-14T00:44:36.595Z,0.85
2022-09-14T00:47:38.110Z,1.20
2022-09-14T00:50:39.562Z,1.08
2022-09-14T00:53:41.127Z,1.00
2022-09-14T00:56:42.652Z,1.00
2022-09-14T00:59:46.009Z,0.80
2022-09-14T01:06:11.780Z,1.30
2022-09-14T01:09:40.284Z,0.98
2022-09-14T01:12:50.706Z,1.17
2022-09-14T01:16:03.046Z,1.00
2022-09-14T01:19:14.772Z,1.20
2022-09-14T01:22:53.381Z,1.08
2022-09-14T01:26:12.630Z,1.13
2022-09-14T01:29:34.834Z,1.65
2022-09-14T01:32:48.947Z,2.60
2022-09-14T01:35:56.930Z,1.40
2022-09-14T01:39:00.734Z,1.35
2022-09-14T01:42:03.692Z,1.35
2022-09-14T01:45:10.135Z,1.35
2022-09-14T01:48:15.810Z,1.13
2022-09-14T01:51:25.817Z,1.52
2022-09-14T01:54:42.613Z,1.27
2022-09-14T01:57:53.807Z,0.90
2022-09-14T02:00:59.049Z,0.80
2022-09-14T02:04:04.195Z,1.10
2022-09-14T02:07:06.305Z,0.88
2022-09-14T02:10:11.630Z,0.93
2022-09-14T02:13:13.761Z,1.30
2022-09-14T02:16:15.352Z,1.13
2022-09-14T02:19:20.534Z,1.20
2022-09-14T02:22:26.315Z,1.13
2022-09-14T02:25:27.732Z,1.33
2022-09-14T02:28:29.178Z,1.10
2022-09-14T02:31:49.057Z,1.80
2022-09-14T02:34:57.808Z,1.08
2022-09-14T02:38:20.330Z,1.10
2022-09-14T02:41:27.075Z,1.10
2022-09-14T02:44:58.802Z,0.93
2022-09-14T02:48:19.390Z,0.95
2022-09-14T02:51:27.770Z,0.80
2022-09-14T02:54:40.121Z,0.80
2022-09-14T02:58:03.805Z,1.10
2022-09-14T03:01:07.498Z,1.10
2022-09-14T03:04:09.225Z,1.05
2022-09-14T03:07:10.726Z,1.00
2022-09-14T03:10:12.192Z,1.05
2022-09-14T03:13:13.619Z,0.82
2022-09-14T03:16:17.086Z,1.20
2022-09-14T03:19:18.743Z,0.98
2022-09-14T03:22:20.118Z,1.17
2022-09-14T03:25:23.018Z,1.20
2022-09-14T03:28:24.626Z,1.23
2022-09-14T03:31:26.597Z,1.00
2022-09-14T03:34:28.039Z,0.90
2022-09-14T03:37:29.512Z,1.48
2022-09-14T03:40:31.273Z,1.23
2022-09-14T03:43:33.718Z,1.17
2022-09-14T03:46:35.170Z,1.20
2022-09-14T03:49:36.617Z,1.50
2022-09-14T03:52:38.845Z,1.58
2022-09-14T03:55:41.419Z,1.35
2022-09-14T03:58:44.367Z,0.90
2022-09-14T04:01:46.300Z,1.20
2022-09-14T04:04:48.222Z,1.30
2022-09-14T04:07:49.661Z,0.95
2022-09-14T04:10:51.263Z,1.13
2022-09-14T04:13:53.218Z,1.30
2022-09-14T04:16:54.587Z,1.20
2022-09-14T04:19:56.013Z,1.20
2022-09-14T04:22:57.570Z,1.70
2022-09-14T04:25:59.603Z,1.30
2022-09-14T04:29:01.030Z,1.42
2022-09-14T04:32:03.235Z,1.73
2022-09-14T04:35:04.870Z,2.00
2022-09-14T04:38:06.318Z,1.33
2022-09-14T04:41:13.615Z,1.10
2022-09-14T04:44:15.305Z,1.70
2022-09-14T04:47:16.681Z,1.70
2022-09-14T04:50:18.063Z,1.63
2022-09-14T04:53:19.498Z,1.17
2022-09-14T04:56:24.110Z,1.10
2022-09-14T04:59:25.939Z,1.25
2022-09-14T05:02:27.355Z,1.40
2022-09-14T05:05:28.753Z,1.45
2022-09-14T05:08:30.433Z,1.40
2022-09-14T05:11:34.211Z,1.45
2022-09-14T05:14:35.628Z,1.10
2022-09-14T05:17:37.008Z,1.80
2022-09-14T05:20:39.176Z,1.45
2022-09-14T05:23:41.043Z,1.50
2022-09-14T05:26:43.748Z,1.70
2022-09-14T05:29:45.105Z,1.40
2022-09-14T05:32:46.489Z,1.80
2022-09-14T05:35:48.783Z,1.42
2022-09-14T05:38:50.500Z,1.25
2022-09-14T05:41:52.021Z,1.30
2022-09-14T05:44:53.389Z,1.40
2022-09-14T05:47:54.822Z,1.20
2022-09-14T05:51:05.579Z,1.30
2022-09-14T05:54:11.340Z,1.30
2022-09-14T05:57:12.783Z,2.10
2022-09-14T06:00:15.193Z,1.67
2022-09-14T06:03:16.630Z,1.93
2022-09-14T06:06:19.553Z,1.55
2022-09-14T06:09:21.022Z,1.98
2022-09-14T06:12:23.298Z,1.73
2022-09-14T06:15:24.766Z,1.38
2022-09-14T06:18:26.209Z,1.40
2022-09-14T06:21:30.954Z,1.85
2022-09-14T06:24:33.200Z,1.25
2022-09-14T06:27:34.642Z,1.40
2022-09-14T06:30:36.082Z,1.80
2022-09-14T06:33:37.574Z,1.35
2022-09-14T06:36:39.044Z,2.05
2022-09-14T06:39:40.467Z,1.65
2022-09-14T06:42:41.899Z,1.40
2022-09-14T06:45:43.302Z,1.38
2022-09-14T06:49:03.569Z,1.23
2022-09-14T06:52:05.018Z,1.10
2022-09-14T06:55:06.829Z,1.40
2022-09-14T06:58:09.426Z,1.60
2022-09-14T07:01:14.785Z,1.40
2022-09-14T07:04:16.550Z,1.23
2022-09-14T07:07:18.000Z,1.40
2022-09-14T07:10:19.517Z,1.40
2022-09-14T07:13:20.940Z,1.40
2022-09-14T07:16:22.386Z,1.40
2022-09-14T07:19:23.763Z,1.40
2022-09-14T07:22:25.180Z,1.52
2022-09-14T07:25:26.626Z,2.08
2022-09-14T07:28:28.246Z,1.05
2022-09-14T07:31:35.482Z,1.30
2022-09-14T07:34:36.898Z,1.10
2022-09-14T07:37:38.272Z,1.20
2022-09-14T07:40:39.633Z,1.38
2022-09-14T07:43:41.383Z,1.20
2022-09-14T07:46:44.683Z,1.45
2022-09-14T07:52:51.058Z,1.20
2022-09-14T07:55:52.736Z,1.42
2022-09-14T07:59:07.125Z,1.50
2022-09-14T08:02:18.503Z,1.48
2022-09-14T08:05:20.034Z,1.40
2022-09-14T08:08:21.699Z,1.42
2022-09-14T08:11:31.364Z,1.70
2022-09-14T08:14:32.878Z,1.50
2022-09-14T08:17:34.222Z,1.52
2022-09-14T08:20:35.626Z,1.30
2022-09-14T08:23:39.580Z,1.70
2022-09-14T08:26:41.056Z,2.53
2022-09-14T08:29:42.393Z,8.73
2022-09-14T08:32:45.552Z,2.03
2022-09-14T08:35:57.781Z,1.67
2022-09-14T08:39:00.575Z,3.03
2022-09-14T08:42:05.951Z,2.10
2022-09-14T08:45:09.886Z,3.60
2022-09-14T08:48:27.159Z,1.60
2022-09-14T08:51:29.524Z,2.53
2022-09-14T08:54:33.247Z,2.03
2022-09-14T08:57:40.495Z,1.55
2022-09-14T09:00:59.242Z,1.10
2022-09-14T09:04:00.713Z,1.20
2022-09-14T09:07:12.128Z,1.70
2022-09-14T09:10:13.824Z,1.85
2022-09-14T09:13:20.227Z,3.20
2022-09-14T09:16:24.711Z,1.75
2022-09-14T09:19:34.445Z,1.50
2022-09-14T09:22:41.526Z,1.92
2022-09-14T09:25:50.052Z,1.88
2022-09-14T09:28:58.596Z,1.65
2022-09-14T09:32:00.196Z,2.28
2022-09-14T09:35:24.598Z,1.80
2022-09-14T09:38:34.639Z,1.40
2022-09-14T09:41:51.259Z,1.77
2022-09-14T09:45:05.919Z,1.17
2022-09-14T09:48:10.916Z,1.50
2022-09-14T09:51:15.417Z,1.80
2022-09-14T09:54:16.758Z,1.30
2022-09-14T09:57:36.818Z,1.88
2022-09-14T10:00:38.280Z,1.50
2022-09-14T10:03:40.785Z,1.40
2022-09-14T10:06:45.344Z,1.67
2022-09-14T10:09:57.502Z,1.60
2022-09-14T10:12:58.970Z,1.63
2022-09-14T10:16:07.709Z,1.65
2022-09-14T10:19:14.944Z,1.50
2022-09-14T10:22:26.644Z,1.52
2022-09-14T10:25:28.720Z,1.83
2022-09-14T10:28:33.667Z,2.20
2022-09-14T10:31:37.251Z,1.45
2022-09-14T10:34:38.645Z,1.67
2022-09-14T10:37:50.534Z,1.60
2022-09-14T10:41:19.517Z,1.48
2022-09-14T10:44:52.508Z,1.27
2022-09-14T10:48:12.211Z,1.03
2022-09-14T10:51:29.410Z,1.30
2022-09-14T10:55:08.653Z,1.30
2022-09-14T10:58:33.809Z,1.20
2022-09-14T11:02:05.376Z,1.02
2022-09-14T11:05:12.900Z,1.10
2022-09-14T11:08:34.790Z,1.05
2022-09-14T11:12:08.988Z,1.20
2022-09-14T11:15:23.682Z,1.20
2022-09-14T11:18:45.443Z,1.10
2022-09-14T11:22:00.744Z,1.20
2022-09-14T11:25:16.586Z,1.10
2022-09-14T11:28:28.954Z,1.60
2022-09-14T11:31:38.763Z,1.10
2022-09-14T11:34:57.760Z,1.40
2022-09-14T11:38:02.944Z,1.25
2022-09-14T11:41:07.769Z,1.80
2022-09-14T11:44:24.414Z,1.40
2022-09-14T11:47:26.359Z,1.25
2022-09-14T11:50:31.519Z,1.40
2022-09-14T11:53:33.981Z,1.10
2022-09-14T11:56:35.673Z,1.50
2022-09-14T11:59:39.892Z,1.20
2022-09-14T12:02:42.879Z,0.95
2022-09-14T12:05:45.473Z,1.48
2022-09-14T12:08:47.581Z,1.10
2022-09-14T12:11:54.335Z,1.10
2022-09-14T12:14:59.650Z,1.10
2022-09-14T12:18:06.936Z,1.15
2022-09-14T12:21:26.474Z,1.95
2022-09-14T12:24:27.899Z,1.20
2022-09-14T12:27:36.924Z,1.13
2022-09-14T12:30:41.474Z,1.80
2022-09-14T12:33:43.874Z,1.00
2022-09-14T12:36:45.278Z,1.23
2022-09-14T12:40:20.614Z,1.45
2022-09-14T12:43:37.412Z,1.10
2022-09-14T12:46:39.880Z,1.50
2022-09-14T12:49:41.537Z,1.30
2022-09-14T12:53:12.719Z,1.45
2022-09-14T12:56:23.788Z,1.40
2022-09-14T13:00:10.426Z,1.27
2022-09-14T13:03:46.100Z,1.40
2022-09-14T13:06:47.742Z,1.63
2022-09-14T13:09:55.034Z,1.30
2022-09-14T13:12:56.532Z,1.35
2022-09-14T13:16:00.849Z,1.27
2022-09-14T13:19:07.151Z,0.82
2022-09-14T13:22:24.620Z,0.73
2022-09-14T13:25:35.339Z,0.73
2022-09-14T13:28:37.482Z,0.68
2022-09-14T13:31:39.697Z,0.90
2022-09-14T13:34:41.175Z,0.77
2022-09-14T13:37:47.576Z,0.80
2022-09-14T13:40:52.197Z,0.68
2022-09-14T13:43:56.008Z,0.82
2022-09-14T13:46:59.654Z,0.80
2022-09-14T13:50:01.199Z,0.55
2022-09-14T13:53:04.140Z,1.00
2022-09-14T13:56:17.380Z,0.73
2022-09-14T13:59:21.756Z,0.90
2022-09-14T14:02:23.489Z,0.77
2022-09-14T14:05:32.479Z,0.60
2022-09-14T14:08:38.479Z,0.70
2022-09-14T14:11:42.835Z,0.63
2022-09-14T14:14:52.996Z,1.08
2022-09-14T14:17:54.741Z,0.80
2022-09-14T14:21:05.238Z,0.70
2022-09-14T14:24:27.771Z,0.50
2022-09-14T14:27:35.882Z,0.63
2022-09-14T14:30:40.224Z,0.68
2022-09-14T14:33:50.910Z,0.70
2022-09-14T14:36:52.890Z,0.60
2022-09-14T14:39:54.330Z,0.50
2022-09-14T14:42:58.501Z,0.40
2022-09-14T14:46:01.297Z,0.60
2022-09-14T14:49:02.761Z,0.70
2022-09-14T14:52:04.268Z,0.60
2022-09-14T14:55:06.165Z,0.60
2022-09-14T14:58:12.807Z,0.40
2022-09-14T15:01:14.262Z,0.40
2022-09-14T15:04:16.257Z,0.40
2022-09-14T15:07:17.614Z,0.40
2022-09-14T15:10:20.740Z,0.50
2022-09-14T15:13:22.135Z,0.30
2022-09-14T15:16:23.647Z,0.30
2022-09-14T15:19:26.229Z,0.32
2022-09-14T15:22:27.696Z,0.30
2022-09-14T15:25:29.341Z,0.98
2022-09-14T15:28:30.961Z,0.40
2022-09-14T15:31:32.812Z,0.68
2022-09-14T15:34:34.251Z,0.30
2022-09-14T15:37:35.682Z,0.55
2022-09-14T15:40:37.407Z,0.60
2022-09-14T15:43:38.858Z,0.55
2022-09-14T15:46:40.327Z,1.23
2022-09-14T15:49:42.386Z,0.40
2022-09-14T15:52:43.813Z,0.60
2022-09-14T15:55:45.904Z,0.90
2022-09-14T15:58:48.227Z,0.50
2022-09-14T16:01:49.920Z,0.30
2022-09-14T16:04:51.533Z,0.30
2022-09-14T16:07:54.989Z,0.40
2022-09-14T16:10:58.084Z,1.02
2022-09-14T16:13:59.978Z,0.20
2022-09-14T16:17:01.635Z,0.50
2022-09-14T16:20:05.133Z,0.30
2022-09-14T16:23:06.570Z,0.50
2022-09-14T16:26:17.130Z,0.30
2022-09-14T16:29:20.545Z,0.40
2022-09-14T16:32:22.089Z,1.17
2022-09-14T16:35:23.673Z,0.30
2022-09-14T16:38:25.079Z,0.20
2022-09-14T16:41:27.419Z,0.43
2022-09-14T16:44:29.003Z,0.20
2022-09-14T16:47:32.164Z,0.30
2022-09-14T16:50:33.557Z,0.30
2022-09-14T16:53:37.487Z,0.65
2022-09-14T16:56:39.025Z,0.40
2022-09-14T16:59:40.429Z,0.40
2022-09-14T17:02:42.737Z,0.40
2022-09-14T17:05:44.141Z,0.30
2022-09-14T17:08:46.052Z,0.30
2022-09-14T17:11:48.509Z,0.30
2022-09-14T17:14:49.879Z,0.30
2022-09-14T17:17:52.348Z,0.40
2022-09-14T17:20:56.178Z,0.28
2022-09-14T17:23:58.064Z,0.43
2022-09-14T17:26:59.429Z,0.30
2022-09-14T17:30:00.861Z,0.30
2022-09-14T17:33:02.293Z,0.30
2022-09-14T17:36:05.423Z,0.40
2022-09-14T17:39:11.535Z,0.40
2022-09-14T17:42:13.542Z,0.45
2022-09-14T17:45:15.044Z,0.20
2022-09-14T17:48:16.442Z,0.30
2022-09-14T17:51:22.287Z,0.30
2022-09-14T17:54:23.723Z,0.40
2022-09-14T17:57:25.344Z,0.70
2022-09-14T18:00:26.799Z,0.50
2022-09-14T18:03:28.249Z,0.40
2022-09-14T18:06:35.514Z,0.47
2022-09-14T18:09:37.415Z,0.30
2022-09-14T18:12:39.679Z,0.35
2022-09-14T18:15:41.072Z,0.30
2022-09-14T18:18:42.749Z,0.40
2022-09-14T18:21:45.887Z,0.30
2022-09-14T18:24:49.285Z,0.40
2022-09-14T18:27:50.693Z,0.40
2022-09-14T18:31:09.881Z,0.80
2022-09-14T18:34:11.326Z,0.40
2022-09-14T18:37:13.374Z,1.00
2022-09-14T18:40:19.527Z,0.70
2022-09-14T18:43:22.526Z,0.47
2022-09-14T18:46:28.043Z,0.45
2022-09-14T18:49:29.876Z,0.40
2022-09-14T18:52:31.536Z,0.45
2022-09-14T18:55:33.730Z,0.40
2022-09-14T18:58:37.337Z,0.68
2022-09-14T19:01:39.009Z,0.73
2022-09-14T19:04:40.684Z,0.25
2022-09-14T19:07:42.071Z,0.57
2022-09-14T19:10:43.563Z,0.50
2022-09-14T19:13:46.381Z,0.60
2022-09-14T19:16:48.048Z,0.60
2022-09-14T19:19:49.558Z,0.40
2022-09-14T19:22:55.762Z,0.52
2022-09-14T19:26:22.959Z,0.30
2022-09-14T19:29:25.246Z,0.30
2022-09-14T19:32:26.991Z,0.40
2022-09-14T19:35:30.256Z,0.30
2022-09-14T19:38:31.699Z,0.60
2022-09-14T19:41:34.438Z,0.60
2022-09-14T19:44:35.917Z,0.50
2022-09-14T19:47:37.669Z,0.50
2022-09-14T19:50:39.054Z,0.70
2022-09-14T19:53:41.433Z,0.50
2022-09-14T19:56:43.531Z,0.40
2022-09-14T19:59:45.063Z,0.40
2022-09-14T20:02:46.543Z,0.60
2022-09-14T20:05:48.347Z,0.40
2022-09-14T20:08:55.594Z,0.40
2022-09-14T20:11:57.048Z,0.65
2022-09-14T20:14:58.468Z,0.40
2022-09-14T20:17:59.837Z,0.40
2022-09-14T20:21:01.416Z,0.52
2022-09-14T20:24:15.582Z,0.40
2022-09-14T20:27:17.872Z,0.50
2022-09-14T20:30:19.272Z,0.50
2022-09-14T20:33:20.658Z,0.80
2022-09-14T20:36:23.515Z,0.40
2022-09-14T20:39:25.002Z,0.60
2022-09-14T20:42:26.365Z,0.40
2022-09-14T20:45:28.041Z,0.40
2022-09-14T20:48:30.054Z,0.40
2022-09-14T20:51:32.159Z,0.40
2022-09-14T20:54:33.568Z,0.60
2022-09-14T20:57:34.957Z,0.60
2022-09-14T21:00:36.431Z,0.50
2022-09-14T21:03:40.838Z,0.52
2022-09-14T21:06:45.323Z,0.50
2022-09-14T21:09:46.701Z,0.60
2022-09-14T21:12:48.125Z,0.60
2022-09-14T21:15:49.784Z,0.60
2022-09-14T21:18:54.594Z,0.50
2022-09-14T21:21:56.467Z,0.60
2022-09-14T21:24:57.862Z,0.68
2022-09-14T21:27:59.868Z,0.40
2022-09-14T21:31:10.674Z,0.45
2022-09-14T21:34:12.584Z,0.50
2022-09-14T21:37:14.062Z,0.45
2022-09-14T21:40:18.215Z,0.50
2022-09-14T21:43:19.665Z,0.47
2022-09-14T21:46:21.425Z,0.35
2022-09-14T21:49:23.393Z,0.50
2022-09-14T21:52:24.824Z,0.60
2022-09-14T21:55:28.379Z,0.50
2022-09-14T21:58:29.818Z,0.52
2022-09-14T22:01:31.567Z,0.60
2022-09-14T22:04:33.041Z,0.52
2022-09-14T22:07:35.628Z,0.60
2022-09-14T22:10:37.041Z,0.60
2022-09-14T22:13:39.082Z,0.60
2022-09-14T22:16:41.708Z,0.50
2022-09-14T22:19:43.219Z,0.65
2022-09-14T22:22:44.593Z,0.73
2022-09-14T22:25:46.461Z,0.55
2022-09-14T22:28:50.415Z,0.60
2022-09-14T22:31:52.341Z,0.50
2022-09-14T22:34:53.982Z,0.40
2022-09-14T22:37:55.378Z,0.70
2022-09-14T22:40:58.945Z,0.60
2022-09-14T22:44:01.011Z,0.70
2022-09-14T22:47:02.443Z,0.55
2022-09-14T22:50:04.163Z,0.50
2022-09-14T22:53:05.534Z,0.60
2022-09-14T22:56:19.722Z,0.57
2022-09-14T22:59:21.107Z,0.60
2022-09-14T23:02:22.779Z,0.70
2022-09-14T23:05:24.286Z,0.68
2022-09-14T23:08:27.151Z,0.40
2022-09-14T23:11:29.539Z,0.60
2022-09-14T23:14:31.855Z,0.70
2022-09-14T23:17:33.224Z,0.60
2022-09-14T23:20:43.286Z,0.63
2022-09-14T23:23:44.753Z,0.80
2022-09-14T23:26:46.445Z,0.70
2022-09-14T23:29:48.331Z,0.63
2022-09-14T23:32:49.706Z,0.90
2022-09-14T23:35:51.097Z,0.68
2022-09-14T23:38:52.841Z,0.90
2022-09-14T23:41:54.587Z,0.82
2022-09-14T23:44:56.011Z,0.63
2022-09-14T23:47:57.388Z,0.80
2022-09-14T23:51:00.595Z,0.70
2022-09-14T23:57:03.567Z,0.70
